Time;durP1;ratioP1;P1;durP2;ratioP2;P2;SDS_P1;SDS_P2;PMS_P1;PMS_P2;Temp;Humidity;BMP_temperature;BMP_pressure;BME280_temperature;BME280_humidity;BME280_pressure;Samples;Min_cycle;Max_cycle;Signal;HPM_P1;HPM_P2
2022/07/23 09:37:39;;;;;;;10.07;6.63;;;22.80;96.50;;;;;;6062181;22;1394643;-79
2022/07/23 09:40:06;;;;;;;11.73;6.22;;;23.20;96.50;;;;;;5068317;28;20044;-74
2022/07/23 09:45:40;;;;;;;12.70;6.28;;;22.90;96.70;;;;;;5064776;28;20043;-80
2022/07/23 09:49:06;;;;;;;151.38;38.22;;;23.00;96.20;;;;;;5090479;28;20032;-81
2022/07/23 09:59:14;;;;;;;13.50;7.45;;;23.10;95.20;;;;;;5044951;28;20060;-84
2022/07/23 10:02:16;;;;;;;16.40;8.43;;;23.20;95.60;;;;;;5035131;28;20079;-83
2022/07/23 10:04:42;;;;;;;12.40;7.63;;;23.50;95.50;;;;;;5010771;28;20042;-80
2022/07/23 10:17:28;;;;;;;12.55;6.30;;;22.80;94.20;;;;;;5652254;22;20087;-83
2022/07/23 10:19:54;;;;;;;10.15;6.25;;;23.20;95.00;;;;;;5060169;28;20059;-80
2022/07/23 10:25:59;;;;;;;13.75;6.43;;;23.00;95.20;;;;;;5087451;28;20533;-76
2022/07/23 10:55:54;;;;;;;11.38;5.05;;;23.30;92.70;;;;;;5078647;28;20102;-82
2022/07/23 10:58:22;;;;;;;7.68;5.07;;;23.20;92.90;;;;;;5092617;28;20024;-80
2022/07/23 11:00:48;;;;;;;5.68;4.72;;;24.00;93.30;;;;;;5055727;28;20043;-79
2022/07/23 11:03:37;;;;;;;8.73;4.80;;;23.20;93.20;;;;;;5088147;28;20029;-80
2022/07/23 11:06:06;;;;;;;10.50;5.40;;;23.80;93.30;;;;;;5065925;28;20120;-81
2022/07/23 11:08:31;;;;;;;9.65;5.40;;;23.20;93.80;;;;;;5087891;28;20024;-80
2022/07/23 11:11:03;;;;;;;15.50;6.32;;;23.90;94.00;;;;;;5070482;28;20501;-79
2022/07/23 11:13:32;;;;;;;7.15;5.43;;;23.30;96.80;;;;;;5085902;28;20052;-80
2022/07/23 11:16:01;;;;;;;10.25;5.18;;;23.40;94.90;;;;;;5066187;28;20067;-80
2022/07/23 11:18:47;;;;;;;6.80;5.43;;;23.40;94.30;;;;;;5085492;28;20089;-80
2022/07/23 11:21:40;;;;;;;12.75;5.57;;;23.60;94.30;;;;;;5093430;28;20109;-80
2022/07/23 11:25:13;;;;;;;9.50;5.53;;;23.60;94.20;;;;;;5062409;28;20059;-80
2022/07/23 11:28:14;;;;;;;9.40;5.05;;;23.50;93.10;;;;;;4985836;28;20117;-80
2022/07/23 11:31:02;;;;;;;7.03;5.00;;;23.70;92.50;;;;;;4940657;29;20039;-81
2022/07/23 11:33:39;;;;;;;10.05;5.63;;;23.40;91.10;;;;;;4944347;28;20380;-76
2022/07/23 11:36:17;;;;;;;9.07;5.40;;;23.40;90.70;;;;;;4994874;28;20114;-80
2022/07/23 11:38:43;;;;;;;7.85;5.13;;;24.00;90.40;;;;;;5050437;28;20029;-80
2022/07/23 11:41:47;;;;;;;9.43;5.72;;;24.10;91.00;;;;;;5044822;28;20141;-82
2022/07/23 11:44:29;;;;;;;11.18;5.45;;;23.90;92.20;;;;;;5060456;28;20028;-81
2022/07/23 11:47:02;;;;;;;7.93;5.70;;;23.80;92.30;;;;;;5057842;28;20028;-81
2022/07/23 11:49:31;;;;;;;8.07;5.18;;;23.80;91.90;;;;;;5033344;28;20136;-81
2022/07/23 11:52:14;;;;;;;8.13;5.47;;;23.50;92.10;;;;;;5044948;28;20048;-82
2022/07/23 11:55:38;;;;;;;9.43;5.20;;;23.90;92.10;;;;;;5078548;28;20056;-82
2022/07/23 11:58:47;;;;;;;12.18;5.25;;;23.70;91.90;;;;;;5051944;28;20040;-82
2022/07/23 12:01:15;;;;;;;8.73;5.63;;;24.00;91.80;;;;;;5048338;28;20044;-81
2022/07/23 12:03:50;;;;;;;8.63;5.28;;;22.90;90.80;;;;;;5049228;28;20031;-81
2022/07/23 12:06:40;;;;;;;10.40;5.53;;;24.10;91.30;;;;;;5053638;28;20024;-81
2022/07/23 12:12:52;;;;;;;8.07;4.38;;;23.80;89.80;;;;;;5073224;28;20082;-81
2022/07/23 12:15:23;;;;;;;6.22;3.80;;;23.90;91.50;;;;;;5033142;28;20536;-79
2022/07/23 12:18:08;;;;;;;5.47;4.28;;;23.70;90.50;;;;;;5056095;28;20469;-81
2022/07/23 12:21:08;;;;;;;6.05;3.78;;;23.80;89.20;;;;;;5035529;28;20029;-80
2022/07/23 12:23:34;;;;;;;7.78;4.45;;;23.80;89.60;;;;;;5048162;28;20107;-81
2022/07/23 12:26:08;;;;;;;8.07;4.75;;;23.80;90.40;;;;;;5050576;28;20032;-80
2022/07/23 12:29:32;;;;;;;9.27;4.37;;;23.80;90.40;;;;;;5082598;28;20420;-83
2022/07/23 12:32:31;;;;;;;7.63;4.82;;;23.90;88.60;;;;;;4985131;28;20124;-82
2022/07/23 12:35:13;;;;;;;6.97;5.03;;;24.30;87.50;;;;;;4989274;28;20035;-82
2022/07/23 12:37:46;;;;;;;9.27;4.30;;;23.80;86.70;;;;;;4974195;28;20465;-81
2022/07/23 12:44:07;;;;;;;9.70;5.82;;;23.90;88.90;;;;;;4983244;28;20030;-82
2022/07/23 12:46:42;;;;;;;11.27;7.25;;;23.80;90.10;;;;;;4980009;28;20026;-82
2022/07/23 12:49:14;;;;;;;10.85;8.32;;;23.90;88.20;;;;;;4976807;28;20030;-82
2022/07/23 12:52:14;;;;;;;7.90;6.10;;;24.00;88.20;;;;;;4961427;28;20026;-82
2022/07/23 12:55:00;;;;;;;9.85;5.03;;;24.60;87.70;;;;;;4999336;28;20031;-82
2022/07/23 13:01:37;;;;;;;;;;;;;;;;;;;;;
2022/07/23 13:05:02;;;;;;;9.70;4.03;;;23.90;86.70;;;;;;4996603;28;20033;-83
2022/07/23 13:08:17;;;;;;;8.27;4.43;;;24.20;88.90;;;;;;4981579;28;20022;-82
2022/07/23 13:11:44;;;;;;;;;;;;;;;;;;;;;
2022/07/23 13:25:32;;;;;;;;;;;;;;;;;;;;;
2022/07/23 13:28:01;;;;;;;4.40;3.72;;;23.90;85.50;;;;;;5048226;28;20404;-82
2022/07/23 13:37:41;;;;;;;7.70;3.50;;;24.10;85.20;;;;;;5070605;28;20031;-83
2022/07/23 13:44:28;;;;;;;4.50;2.78;;;23.90;85.30;;;;;;5073462;28;20063;-83
2022/07/23 13:51:26;;;;;;;7.10;3.75;;;23.80;84.00;;;;;;5029037;28;20472;-83
2022/07/23 13:54:00;;;;;;;7.43;2.83;;;23.90;83.90;;;;;;4959857;28;20026;-82
2022/07/23 13:56:26;;;;;;;3.05;2.85;;;24.00;83.40;;;;;;4983610;28;20022;-82
2022/07/23 13:58:54;;;;;;;3.67;2.85;;;24.20;83.70;;;;;;4995484;28;20080;-82
2022/07/23 14:01:32;;;;;;;4.82;2.63;;;24.00;83.20;;;;;;5049546;28;20082;-82
2022/07/23 14:03:58;;;;;;;8.07;3.00;;;24.10;83.40;;;;;;5085127;28;20495;-82
2022/07/23 14:06:27;;;;;;;4.50;2.90;;;24.20;83.30;;;;;;5062820;28;20193;-82
2022/07/23 14:08:56;;;;;;;3.10;2.33;;;24.10;82.50;;;;;;5073678;28;20526;-82
2022/07/23 14:44:21;;;;;;;6.68;3.22;;;24.00;80.60;;;;;;5054064;28;20028;-82
2022/07/23 14:46:55;;;;;;;4.05;2.90;;;24.40;81.70;;;;;;5035758;28;20056;-82
2022/07/23 14:50:08;;;;;;;3.88;2.78;;;25.10;81.00;;;;;;5033055;28;20043;-83
2022/07/23 14:55:59;;;;;;;5.13;3.45;;;24.30;80.20;;;;;;4914993;29;20112;-82
2022/07/23 15:02:44;;;;;;;6.13;3.15;;;24.50;78.30;;;;;;4970868;28;20035;-84
2022/07/23 15:05:22;;;;;;;4.45;3.10;;;24.60;77.60;;;;;;5067750;28;20044;-84
2022/07/23 15:08:13;;;;;;;4.60;2.85;;;25.30;78.20;;;;;;5022707;28;20020;-81
2022/07/23 15:10:47;;;;;;;6.18;3.03;;;24.80;77.50;;;;;;5053221;28;20040;-82
2022/07/23 15:13:36;;;;;;;5.10;2.92;;;24.70;77.90;;;;;;5003040;28;20039;-81
2022/07/23 15:16:03;;;;;;;7.15;3.30;;;24.70;76.70;;;;;;5052353;28;20044;-81
2022/07/23 15:18:28;;;;;;;3.65;3.00;;;24.70;76.50;;;;;;5034427;28;20128;-82
2022/07/23 15:21:32;;;;;;;;;;;;;;;;;;;;;
2022/07/23 15:24:02;;;;;;;3.17;2.47;;;24.80;75.70;;;;;;4996750;28;20551;-81
2022/07/23 15:26:56;;;;;;;3.40;3.05;;;24.90;76.10;;;;;;5035441;28;20104;-81
2022/07/23 15:36:33;;;;;;;7.75;3.53;;;24.80;76.00;;;;;;4978178;28;20061;-82
2022/07/23 15:38:58;;;;;;;5.80;3.42;;;24.80;76.40;;;;;;4984997;28;20050;-81
2022/07/23 15:41:25;;;;;;;3.10;2.80;;;24.40;75.00;;;;;;4974380;28;20050;-82
2022/07/23 15:43:50;;;;;;;5.65;3.28;;;24.80;76.40;;;;;;5009128;28;20018;-82
2022/07/23 15:46:17;;;;;;;3.42;3.08;;;24.60;76.00;;;;;;5015365;28;20051;-81
2022/07/23 15:49:28;;;;;;;3.13;2.75;;;24.50;75.70;;;;;;5033110;28;20446;-82
2022/07/23 15:55:55;;;;;;;5.03;3.28;;;24.70;74.30;;;;;;5035643;28;20517;-87
2022/07/23 15:58:46;;;;;;;3.38;3.03;;;24.80;73.20;;;;;;5021434;28;20597;-83
2022/07/23 16:01:12;;;;;;;3.03;2.70;;;24.90;73.00;;;;;;5020259;28;20033;-82
2022/07/23 16:03:41;;;;;;;3.88;2.75;;;25.20;73.50;;;;;;4998623;28;20028;-82
2022/07/23 16:06:17;;;;;;;5.00;2.83;;;24.60;74.40;;;;;;5031706;28;20171;-82
2022/07/23 16:08:51;;;;;;;3.70;2.60;;;25.30;73.80;;;;;;5036319;28;20020;-82
2022/07/23 16:11:17;;;;;;;4.35;2.70;;;25.20;74.10;;;;;;5051739;28;20480;-81
2022/07/23 16:13:43;;;;;;;4.15;3.10;;;25.30;74.10;;;;;;5052903;28;20037;-81
2022/07/23 16:19:30;;;;;;;4.30;2.63;;;25.20;72.60;;;;;;5031229;28;20847;-75
2022/07/23 16:21:56;;;;;;;5.78;3.85;;;25.20;73.20;;;;;;5032037;28;20033;-79
2022/07/23 16:24:22;;;;;;;5.07;3.50;;;26.10;75.00;;;;;;5017893;28;20543;-77
2022/07/23 16:26:47;;;;;;;7.47;5.95;;;25.50;74.00;;;;;;5015795;28;20505;-77
2022/07/23 16:29:13;;;;;;;6.82;5.00;;;25.70;72.60;;;;;;4998379;28;20024;-77
2022/07/23 16:31:38;;;;;;;6.65;5.30;;;25.70;74.10;;;;;;5018465;28;20064;-77
2022/07/23 16:34:04;;;;;;;6.57;5.13;;;25.50;71.40;;;;;;5021381;28;20035;-78
2022/07/23 16:36:30;;;;;;;4.15;3.75;;;25.30;72.30;;;;;;5052088;28;20033;-78
2022/07/23 16:39:08;;;;;;;4.90;3.30;;;25.90;72.30;;;;;;5013206;28;20025;-83
2022/07/23 16:44:59;;;;;;;4.22;3.75;;;25.00;71.90;;;;;;5022035;28;20021;-84
2022/07/23 16:57:39;;;;;;;6.38;3.55;;;24.90;73.80;;;;;;5018833;28;20076;-73
2022/07/23 17:00:05;;;;;;;4.65;2.90;;;26.20;74.80;;;;;;5024551;28;20469;-70
2022/07/23 17:02:31;;;;;;;4.57;3.13;;;25.10;73.00;;;;;;5022926;28;20203;-71
2022/07/23 17:04:56;;;;;;;2.92;2.72;;;25.00;73.00;;;;;;5010819;28;20499;-71
2022/07/23 17:07:22;;;;;;;5.78;3.22;;;25.20;73.20;;;;;;4989482;28;20497;-70
2022/07/23 17:09:47;;;;;;;5.53;3.28;;;25.20;73.00;;;;;;5004893;28;20025;-70
2022/07/23 17:12:13;;;;;;;5.90;2.90;;;25.20;73.50;;;;;;5005028;28;20145;-71
2022/07/23 17:14:39;;;;;;;8.35;3.00;;;25.10;73.70;;;;;;5007922;28;20072;-71
2022/07/23 17:17:04;;;;;;;5.78;3.70;;;24.90;73.20;;;;;;5027368;28;20029;-71
2022/07/23 17:19:30;;;;;;;5.95;3.67;;;25.30;74.20;;;;;;5028019;28;20108;-71
2022/07/23 18:00:45;;;;;;;5.50;3.15;;;25.10;71.80;;;;;;4933773;28;20048;-82
2022/07/23 18:10:15;;;;;;;4.38;3.00;;;25.10;72.90;;;;;;5040282;28;20022;-81
2022/07/23 18:13:44;;;;;;;4.60;3.72;;;24.90;73.00;;;;;;4983899;28;20043;-81
2022/07/23 18:16:17;;;;;;;5.00;3.50;;;24.90;74.60;;;;;;5047409;28;20079;-81
2022/07/23 18:18:46;;;;;;;5.75;3.50;;;24.80;74.50;;;;;;5043050;28;20032;-81
2022/07/23 18:45:42;;;;;;;5.38;3.83;;;24.60;74.60;;;;;;5045677;28;20104;-84
2022/07/23 18:52:38;;;;;;;6.72;3.40;;;24.60;75.20;;;;;;4988500;28;20030;-86
2022/07/23 18:56:11;;;;;;;6.55;3.47;;;24.70;75.00;;;;;;4941085;28;20042;-88
2022/07/23 18:59:08;;;;;;;3.63;2.92;;;24.60;78.50;;;;;;4956513;28;20094;-86
2022/07/23 19:02:28;;;;;;;5.90;3.67;;;24.70;76.00;;;;;;4947709;28;20045;-83
2022/07/23 19:04:53;;;;;;;5.68;3.65;;;24.80;76.20;;;;;;4949823;28;20118;-81
2022/07/23 19:07:41;;;;;;;4.50;3.08;;;25.20;76.90;;;;;;4994427;28;20138;-82
2022/07/23 19:10:08;;;;;;;4.38;3.17;;;24.70;76.90;;;;;;5016482;28;20025;-78
2022/07/23 19:12:33;;;;;;;4.68;3.38;;;24.80;77.00;;;;;;5010246;28;20065;-76
